sensor_id;sensor_type;location;lat;lon;timestamp;temperature;humidity
71206;SHT31;58935;54.498;18.544;2022-11-20T00:01:20;-0.04;77.00
71206;SHT31;58935;54.498;18.544;2022-11-20T00:03:48;-0.01;77.05
71206;SHT31;58935;54.498;18.544;2022-11-20T00:06:16;0.03;77.02
71206;SHT31;58935;54.498;18.544;2022-11-20T00:08:43;0.04;76.93
71206;SHT31;58935;54.498;18.544;2022-11-20T00:11:11;0.03;76.93
71206;SHT31;58935;54.498;18.544;2022-11-20T00:13:38;0.02;76.86
71206;SHT31;58935;54.498;18.544;2022-11-20T00:16:06;0.01;76.87
71206;SHT31;58935;54.498;18.544;2022-11-20T00:18:34;0.01;76.90
71206;SHT31;58935;54.498;18.544;2022-11-20T00:21:03;0.01;76.92
71206;SHT31;58935;54.498;18.544;2022-11-20T00:23:30;0.00;76.90
71206;SHT31;58935;54.498;18.544;2022-11-20T00:25:56;-0.00;76.90
71206;SHT31;58935;54.498;18.544;2022-11-20T00:28:22;-0.01;76.91
71206;SHT31;58935;54.498;18.544;2022-11-20T00:30:47;0.01;76.94
71206;SHT31;58935;54.498;18.544;2022-11-20T00:33:12;0.01;76.94
71206;SHT31;58935;54.498;18.544;2022-11-20T00:35:38;0.02;76.90
71206;SHT31;58935;54.498;18.544;2022-11-20T00:38:03;0.00;76.81
71206;SHT31;58935;54.498;18.544;2022-11-20T00:40:29;0.02;77.04
71206;SHT31;58935;54.498;18.544;2022-11-20T00:42:54;0.07;77.01
71206;SHT31;58935;54.498;18.544;2022-11-20T00:45:21;0.10;76.93
71206;SHT31;58935;54.498;18.544;2022-11-20T00:47:47;0.12;76.85
71206;SHT31;58935;54.498;18.544;2022-11-20T00:50:15;0.14;76.89
71206;SHT31;58935;54.498;18.544;2022-11-20T00:52:42;0.17;76.92
71206;SHT31;58935;54.498;18.544;2022-11-20T00:55:08;0.18;76.81
71206;SHT31;58935;54.498;18.544;2022-11-20T00:57:33;0.21;76.79
71206;SHT31;58935;54.498;18.544;2022-11-20T00:59:58;0.20;76.64
71206;SHT31;58935;54.498;18.544;2022-11-20T01:02:24;0.18;76.64
71206;SHT31;58935;54.498;18.544;2022-11-20T01:04:49;0.17;76.70
71206;SHT31;58935;54.498;18.544;2022-11-20T01:07:14;0.17;76.80
71206;SHT31;58935;54.498;18.544;2022-11-20T01:09:42;0.16;76.73
71206;SHT31;58935;54.498;18.544;2022-11-20T01:12:07;0.18;76.95
71206;SHT31;58935;54.498;18.544;2022-11-20T01:14:32;0.21;76.82
71206;SHT31;58935;54.498;18.544;2022-11-20T01:16:58;0.22;76.66
71206;SHT31;58935;54.498;18.544;2022-11-20T01:19:23;0.20;76.49
71206;SHT31;58935;54.498;18.544;2022-11-20T01:21:50;0.18;76.50
71206;SHT31;58935;54.498;18.544;2022-11-20T01:24:18;0.20;76.59
71206;SHT31;58935;54.498;18.544;2022-11-20T01:26:47;0.26;76.53
71206;SHT31;58935;54.498;18.544;2022-11-20T01:29:17;0.31;76.61
71206;SHT31;58935;54.498;18.544;2022-11-20T01:31:45;0.37;76.46
71206;SHT31;58935;54.498;18.544;2022-11-20T01:34:11;0.39;76.34
71206;SHT31;58935;54.498;18.544;2022-11-20T01:36:39;0.43;76.29
71206;SHT31;58935;54.498;18.544;2022-11-20T01:39:07;0.43;76.07
71206;SHT31;58935;54.498;18.544;2022-11-20T01:41:37;0.42;75.93
71206;SHT31;58935;54.498;18.544;2022-11-20T01:44:08;0.37;75.68
71206;SHT31;58935;54.498;18.544;2022-11-20T01:46:36;0.34;75.78
71206;SHT31;58935;54.498;18.544;2022-11-20T01:49:11;0.31;75.73
71206;SHT31;58935;54.498;18.544;2022-11-20T01:51:44;0.27;75.68
71206;SHT31;58935;54.498;18.544;2022-11-20T01:54:14;0.24;75.65
71206;SHT31;58935;54.498;18.544;2022-11-20T01:56:44;0.23;75.58
71206;SHT31;58935;54.498;18.544;2022-11-20T01:59:13;0.25;75.40
71206;SHT31;58935;54.498;18.544;2022-11-20T02:01:41;0.28;75.40
71206;SHT31;58935;54.498;18.544;2022-11-20T02:04:06;0.32;75.40
71206;SHT31;58935;54.498;18.544;2022-11-20T02:06:35;0.34;75.30
71206;SHT31;58935;54.498;18.544;2022-11-20T02:09:07;0.38;75.21
71206;SHT31;58935;54.498;18.544;2022-11-20T02:11:33;0.38;75.03
71206;SHT31;58935;54.498;18.544;2022-11-20T02:13:58;0.36;75.05
71206;SHT31;58935;54.498;18.544;2022-11-20T02:16:25;0.34;75.06
71206;SHT31;58935;54.498;18.544;2022-11-20T02:18:54;0.32;74.95
71206;SHT31;58935;54.498;18.544;2022-11-20T02:24:06;0.25;75.07
71206;SHT31;58935;54.498;18.544;2022-11-20T02:26:38;0.21;75.13
71206;SHT31;58935;54.498;18.544;2022-11-20T02:29:16;0.18;75.15
71206;SHT31;58935;54.498;18.544;2022-11-20T02:31:48;0.15;75.16
71206;SHT31;58935;54.498;18.544;2022-11-20T02:34:13;0.08;75.19
71206;SHT31;58935;54.498;18.544;2022-11-20T02:36:39;0.04;75.33
71206;SHT31;58935;54.498;18.544;2022-11-20T02:39:06;-0.01;75.47
71206;SHT31;58935;54.498;18.544;2022-11-20T02:41:35;-0.00;75.61
71206;SHT31;58935;54.498;18.544;2022-11-20T02:44:04;0.04;75.78
71206;SHT31;58935;54.498;18.544;2022-11-20T02:46:30;0.08;75.72
71206;SHT31;58935;54.498;18.544;2022-11-20T02:49:00;0.11;75.79
71206;SHT31;58935;54.498;18.544;2022-11-20T02:51:27;0.14;75.82
71206;SHT31;58935;54.498;18.544;2022-11-20T02:53:52;0.15;75.69
71206;SHT31;58935;54.498;18.544;2022-11-20T02:56:17;0.15;75.72
71206;SHT31;58935;54.498;18.544;2022-11-20T02:58:45;0.12;75.67
71206;SHT31;58935;54.498;18.544;2022-11-20T03:01:11;0.10;75.70
71206;SHT31;58935;54.498;18.544;2022-11-20T03:03:39;0.11;75.78
71206;SHT31;58935;54.498;18.544;2022-11-20T03:06:04;0.09;75.74
71206;SHT31;58935;54.498;18.544;2022-11-20T03:08:30;0.09;75.80
71206;SHT31;58935;54.498;18.544;2022-11-20T03:10:55;0.08;75.72
71206;SHT31;58935;54.498;18.544;2022-11-20T03:13:21;0.07;75.79
71206;SHT31;58935;54.498;18.544;2022-11-20T03:15:46;0.06;75.80
71206;SHT31;58935;54.498;18.544;2022-11-20T03:18:12;0.06;75.83
71206;SHT31;58935;54.498;18.544;2022-11-20T03:20:41;0.06;75.90
71206;SHT31;58935;54.498;18.544;2022-11-20T03:23:06;0.05;75.82
71206;SHT31;58935;54.498;18.544;2022-11-20T03:25:31;0.02;75.77
71206;SHT31;58935;54.498;18.544;2022-11-20T03:27:57;0.04;75.88
71206;SHT31;58935;54.498;18.544;2022-11-20T03:30:22;0.09;75.81
71206;SHT31;58935;54.498;18.544;2022-11-20T03:32:47;0.15;75.80
71206;SHT31;58935;54.498;18.544;2022-11-20T03:35:13;0.18;75.76
71206;SHT31;58935;54.498;18.544;2022-11-20T03:37:38;0.21;75.70
71206;SHT31;58935;54.498;18.544;2022-11-20T03:40:04;0.23;75.68
71206;SHT31;58935;54.498;18.544;2022-11-20T03:42:30;0.24;75.58
71206;SHT31;58935;54.498;18.544;2022-11-20T03:44:58;0.25;75.56
71206;SHT31;58935;54.498;18.544;2022-11-20T03:47:26;0.25;75.53
71206;SHT31;58935;54.498;18.544;2022-11-20T03:49:51;0.27;75.46
71206;SHT31;58935;54.498;18.544;2022-11-20T03:52:17;0.26;75.42
71206;SHT31;58935;54.498;18.544;2022-11-20T03:54:44;0.24;75.39
71206;SHT31;58935;54.498;18.544;2022-11-20T03:57:10;0.24;75.40
71206;SHT31;58935;54.498;18.544;2022-11-20T03:59:35;0.25;75.39
71206;SHT31;58935;54.498;18.544;2022-11-20T04:02:00;0.24;75.39
71206;SHT31;58935;54.498;18.544;2022-11-20T04:04:25;0.24;75.30
71206;SHT31;58935;54.498;18.544;2022-11-20T04:06:51;0.24;75.22
71206;SHT31;58935;54.498;18.544;2022-11-20T04:09:16;0.22;75.21
71206;SHT31;58935;54.498;18.544;2022-11-20T04:11:41;0.24;75.19
71206;SHT31;58935;54.498;18.544;2022-11-20T04:14:11;0.25;75.20
71206;SHT31;58935;54.498;18.544;2022-11-20T04:16:39;0.27;75.21
71206;SHT31;58935;54.498;18.544;2022-11-20T04:19:05;0.28;75.18
71206;SHT31;58935;54.498;18.544;2022-11-20T04:21:35;0.29;75.10
71206;SHT31;58935;54.498;18.544;2022-11-20T04:24:00;0.29;75.11
71206;SHT31;58935;54.498;18.544;2022-11-20T04:26:27;0.30;75.07
71206;SHT31;58935;54.498;18.544;2022-11-20T04:28:53;0.30;75.08
71206;SHT31;58935;54.498;18.544;2022-11-20T04:31:21;0.32;75.07
71206;SHT31;58935;54.498;18.544;2022-11-20T04:33:48;0.33;75.00
71206;SHT31;58935;54.498;18.544;2022-11-20T04:36:17;0.32;74.99
71206;SHT31;58935;54.498;18.544;2022-11-20T04:38:45;0.32;75.00
71206;SHT31;58935;54.498;18.544;2022-11-20T04:41:16;0.33;75.00
71206;SHT31;58935;54.498;18.544;2022-11-20T04:43:49;0.34;75.05
71206;SHT31;58935;54.498;18.544;2022-11-20T04:46:16;0.34;74.92
71206;SHT31;58935;54.498;18.544;2022-11-20T04:48:43;0.34;74.80
71206;SHT31;58935;54.498;18.544;2022-11-20T04:51:11;0.31;74.80
71206;SHT31;58935;54.498;18.544;2022-11-20T04:53:38;0.26;74.65
71206;SHT31;58935;54.498;18.544;2022-11-20T04:56:04;0.22;74.74
71206;SHT31;58935;54.498;18.544;2022-11-20T04:58:32;0.17;74.73
71206;SHT31;58935;54.498;18.544;2022-11-20T05:01:07;0.13;74.81
71206;SHT31;58935;54.498;18.544;2022-11-20T05:03:35;0.08;74.88
71206;SHT31;58935;54.498;18.544;2022-11-20T05:06:01;0.03;74.96
71206;SHT31;58935;54.498;18.544;2022-11-20T05:08:28;0.02;74.97
71206;SHT31;58935;54.498;18.544;2022-11-20T05:10:53;0.04;75.11
71206;SHT31;58935;54.498;18.544;2022-11-20T05:13:21;0.08;75.17
71206;SHT31;58935;54.498;18.544;2022-11-20T05:15:47;0.12;75.17
71206;SHT31;58935;54.498;18.544;2022-11-20T05:18:12;0.14;75.17
71206;SHT31;58935;54.498;18.544;2022-11-20T05:20:37;0.16;75.22
71206;SHT31;58935;54.498;18.544;2022-11-20T05:23:02;0.17;75.15
71206;SHT31;58935;54.498;18.544;2022-11-20T05:25:28;0.18;75.17
71206;SHT31;58935;54.498;18.544;2022-11-20T05:27:53;0.19;75.19
71206;SHT31;58935;54.498;18.544;2022-11-20T05:30:19;0.18;75.23
71206;SHT31;58935;54.498;18.544;2022-11-20T05:32:44;0.17;75.11
71206;SHT31;58935;54.498;18.544;2022-11-20T05:35:09;0.12;74.99
71206;SHT31;58935;54.498;18.544;2022-11-20T05:37:35;0.10;75.06
71206;SHT31;58935;54.498;18.544;2022-11-20T05:40:00;0.08;74.97
71206;SHT31;58935;54.498;18.544;2022-11-20T05:42:25;0.03;74.87
71206;SHT31;58935;54.498;18.544;2022-11-20T05:44:54;0.01;75.06
71206;SHT31;58935;54.498;18.544;2022-11-20T05:47:19;0.07;75.10
71206;SHT31;58935;54.498;18.544;2022-11-20T05:49:45;0.15;74.94
71206;SHT31;58935;54.498;18.544;2022-11-20T05:52:10;0.17;74.59
71206;SHT31;58935;54.498;18.544;2022-11-20T05:54:35;0.16;74.35
71206;SHT31;58935;54.498;18.544;2022-11-20T05:57:01;0.14;74.26
71206;SHT31;58935;54.498;18.544;2022-11-20T05:59:26;0.11;73.98
71206;SHT31;58935;54.498;18.544;2022-11-20T06:01:51;0.04;73.69
71206;SHT31;58935;54.498;18.544;2022-11-20T06:04:19;-0.03;73.66
71206;SHT31;58935;54.498;18.544;2022-11-20T06:06:47;-0.11;73.70
71206;SHT31;58935;54.498;18.544;2022-11-20T06:09:12;-0.16;73.63
71206;SHT31;58935;54.498;18.544;2022-11-20T06:11:37;-0.22;73.53
71206;SHT31;58935;54.498;18.544;2022-11-20T06:14:03;-0.29;73.49
71206;SHT31;58935;54.498;18.544;2022-11-20T06:16:31;-0.37;73.35
71206;SHT31;58935;54.498;18.544;2022-11-20T06:18:56;-0.48;73.35
71206;SHT31;58935;54.498;18.544;2022-11-20T06:21:22;-0.58;73.52
71206;SHT31;58935;54.498;18.544;2022-11-20T06:23:50;-0.66;73.51
71206;SHT31;58935;54.498;18.544;2022-11-20T06:26:20;-0.77;73.50
71206;SHT31;58935;54.498;18.544;2022-11-20T06:28:48;-0.85;73.70
71206;SHT31;58935;54.498;18.544;2022-11-20T06:31:14;-0.91;73.68
71206;SHT31;58935;54.498;18.544;2022-11-20T06:33:41;-0.98;73.73
71206;SHT31;58935;54.498;18.544;2022-11-20T06:36:08;-1.05;73.88
71206;SHT31;58935;54.498;18.544;2022-11-20T06:38:35;-1.08;74.02
71206;SHT31;58935;54.498;18.544;2022-11-20T06:41:00;-1.10;74.03
71206;SHT31;58935;54.498;18.544;2022-11-20T06:43:25;-1.09;74.17
71206;SHT31;58935;54.498;18.544;2022-11-20T06:45:51;-1.09;74.13
71206;SHT31;58935;54.498;18.544;2022-11-20T06:48:18;-1.08;74.24
71206;SHT31;58935;54.498;18.544;2022-11-20T06:50:43;-1.10;74.31
71206;SHT31;58935;54.498;18.544;2022-11-20T06:53:08;-1.12;74.36
71206;SHT31;58935;54.498;18.544;2022-11-20T06:55:33;-1.14;74.39
71206;SHT31;58935;54.498;18.544;2022-11-20T06:57:59;-1.14;74.34
71206;SHT31;58935;54.498;18.544;2022-11-20T07:00:24;-1.15;74.31
71206;SHT31;58935;54.498;18.544;2022-11-20T07:02:50;-1.16;74.20
71206;SHT31;58935;54.498;18.544;2022-11-20T07:05:15;-1.18;74.17
71206;SHT31;58935;54.498;18.544;2022-11-20T07:07:41;-1.20;74.17
71206;SHT31;58935;54.498;18.544;2022-11-20T07:10:09;-1.21;74.20
71206;SHT31;58935;54.498;18.544;2022-11-20T07:12:35;-1.24;74.30
71206;SHT31;58935;54.498;18.544;2022-11-20T07:15:00;-1.25;74.43
71206;SHT31;58935;54.498;18.544;2022-11-20T07:17:26;-1.27;74.47
71206;SHT31;58935;54.498;18.544;2022-11-20T07:19:51;-1.30;74.53
71206;SHT31;58935;54.498;18.544;2022-11-20T07:22:19;-1.33;74.67
71206;SHT31;58935;54.498;18.544;2022-11-20T07:24:46;-1.36;74.70
71206;SHT31;58935;54.498;18.544;2022-11-20T07:27:12;-1.36;74.71
71206;SHT31;58935;54.498;18.544;2022-11-20T07:29:37;-1.36;74.71
71206;SHT31;58935;54.498;18.544;2022-11-20T07:32:03;-1.35;74.80
71206;SHT31;58935;54.498;18.544;2022-11-20T07:34:29;-1.36;74.77
71206;SHT31;58935;54.498;18.544;2022-11-20T07:36:54;-1.36;74.81
71206;SHT31;58935;54.498;18.544;2022-11-20T07:39:19;-1.35;74.87
71206;SHT31;58935;54.498;18.544;2022-11-20T07:41:45;-1.34;74.95
71206;SHT31;58935;54.498;18.544;2022-11-20T07:44:13;-1.26;75.11
71206;SHT31;58935;54.498;18.544;2022-11-20T07:46:41;-1.16;75.17
71206;SHT31;58935;54.498;18.544;2022-11-20T07:49:06;-1.05;75.20
71206;SHT31;58935;54.498;18.544;2022-11-20T07:51:32;-0.94;75.18
71206;SHT31;58935;54.498;18.544;2022-11-20T07:53:57;-0.84;75.18
71206;SHT31;58935;54.498;18.544;2022-11-20T07:56:22;-0.77;75.14
71206;SHT31;58935;54.498;18.544;2022-11-20T07:58:50;-0.67;75.07
71206;SHT31;58935;54.498;18.544;2022-11-20T08:01:15;-0.58;75.13
71206;SHT31;58935;54.498;18.544;2022-11-20T08:03:41;-0.49;75.07
71206;SHT31;58935;54.498;18.544;2022-11-20T08:06:06;-0.41;74.95
71206;SHT31;58935;54.498;18.544;2022-11-20T08:08:36;-0.35;74.63
71206;SHT31;58935;54.498;18.544;2022-11-20T08:11:04;-0.28;74.53
71206;SHT31;58935;54.498;18.544;2022-11-20T08:13:35;-0.22;74.36
71206;SHT31;58935;54.498;18.544;2022-11-20T08:16:03;-0.17;74.33
71206;SHT31;58935;54.498;18.544;2022-11-20T08:18:29;-0.13;74.12
71206;SHT31;58935;54.498;18.544;2022-11-20T08:20:54;-0.12;73.98
71206;SHT31;58935;54.498;18.544;2022-11-20T08:23:19;-0.08;74.06
71206;SHT31;58935;54.498;18.544;2022-11-20T08:25:48;-0.02;73.91
71206;SHT31;58935;54.498;18.544;2022-11-20T08:28:14;0.03;73.67
71206;SHT31;58935;54.498;18.544;2022-11-20T08:30:40;0.08;73.66
71206;SHT31;58935;54.498;18.544;2022-11-20T08:33:06;0.13;73.83
71206;SHT31;58935;54.498;18.544;2022-11-20T08:35:36;0.18;73.83
71206;SHT31;58935;54.498;18.544;2022-11-20T08:38:03;0.27;73.79
71206;SHT31;58935;54.498;18.544;2022-11-20T08:40:29;0.37;73.57
71206;SHT31;58935;54.498;18.544;2022-11-20T08:42:55;0.43;73.14
71206;SHT31;58935;54.498;18.544;2022-11-20T08:45:20;0.45;73.21
71206;SHT31;58935;54.498;18.544;2022-11-20T08:47:45;0.51;73.41
71206;SHT31;58935;54.498;18.544;2022-11-20T08:50:11;0.56;73.30
71206;SHT31;58935;54.498;18.544;2022-11-20T08:52:39;0.63;73.34
71206;SHT31;58935;54.498;18.544;2022-11-20T08:55:04;0.70;73.14
71206;SHT31;58935;54.498;18.544;2022-11-20T08:57:32;0.67;72.70
71206;SHT31;58935;54.498;18.544;2022-11-20T08:59:58;0.63;72.91
71206;SHT31;58935;54.498;18.544;2022-11-20T09:02:24;0.65;73.13
71206;SHT31;58935;54.498;18.544;2022-11-20T09:04:49;0.69;73.06
71206;SHT31;58935;54.498;18.544;2022-11-20T09:07:15;0.66;72.93
71206;SHT31;58935;54.498;18.544;2022-11-20T09:09:40;0.68;73.08
71206;SHT31;58935;54.498;18.544;2022-11-20T09:12:05;0.70;73.09
71206;SHT31;58935;54.498;18.544;2022-11-20T09:14:31;0.73;73.23
71206;SHT31;58935;54.498;18.544;2022-11-20T09:16:58;0.74;73.17
71206;SHT31;58935;54.498;18.544;2022-11-20T09:19:24;0.74;73.00
71206;SHT31;58935;54.498;18.544;2022-11-20T09:21:50;0.77;73.24
71206;SHT31;58935;54.498;18.544;2022-11-20T09:24:16;0.85;73.18
71206;SHT31;58935;54.498;18.544;2022-11-20T09:26:42;0.90;72.99
71206;SHT31;58935;54.498;18.544;2022-11-20T09:29:08;0.98;73.14
71206;SHT31;58935;54.498;18.544;2022-11-20T09:31:33;1.10;73.13
71206;SHT31;58935;54.498;18.544;2022-11-20T09:33:58;1.21;72.84
71206;SHT31;58935;54.498;18.544;2022-11-20T09:36:24;1.25;72.67
71206;SHT31;58935;54.498;18.544;2022-11-20T09:38:49;1.33;72.79
71206;SHT31;58935;54.498;18.544;2022-11-20T09:41:36;1.42;72.65
71206;SHT31;58935;54.498;18.544;2022-11-20T09:46:54;1.62;72.34
71206;SHT31;58935;54.498;18.544;2022-11-20T09:52:25;1.82;71.94
71206;SHT31;58935;54.498;18.544;2022-11-20T09:55:08;1.89;71.39
71206;SHT31;58935;54.498;18.544;2022-11-20T09:57:38;1.92;71.34
71206;SHT31;58935;54.498;18.544;2022-11-20T10:00:09;1.94;71.17
71206;SHT31;58935;54.498;18.544;2022-11-20T10:02:56;1.89;70.79
71206;SHT31;58935;54.498;18.544;2022-11-20T10:05:29;1.78;70.85
71206;SHT31;58935;54.498;18.544;2022-11-20T10:10:45;1.66;71.24
71206;SHT31;58935;54.498;18.544;2022-11-20T10:18:27;1.68;71.03
71206;SHT31;58935;54.498;18.544;2022-11-20T10:21:15;1.65;71.06
71206;SHT31;58935;54.498;18.544;2022-11-20T10:23:51;1.64;71.20
71206;SHT31;58935;54.498;18.544;2022-11-20T10:26:26;1.64;71.24
71206;SHT31;58935;54.498;18.544;2022-11-20T10:29:16;1.66;71.21
71206;SHT31;58935;54.498;18.544;2022-11-20T10:31:44;1.70;71.15
71206;SHT31;58935;54.498;18.544;2022-11-20T10:36:48;1.72;70.86
71206;SHT31;58935;54.498;18.544;2022-11-20T10:42:13;1.68;71.29
71206;SHT31;58935;54.498;18.544;2022-11-20T10:44:43;1.77;71.49
71206;SHT31;58935;54.498;18.544;2022-11-20T10:47:21;1.90;71.40
71206;SHT31;58935;54.498;18.544;2022-11-20T10:49:50;2.04;71.15
71206;SHT31;58935;54.498;18.544;2022-11-20T10:52:21;2.15;71.03
71206;SHT31;58935;54.498;18.544;2022-11-20T10:55:00;2.25;70.69
71206;SHT31;58935;54.498;18.544;2022-11-20T11:00:20;2.35;70.45
71206;SHT31;58935;54.498;18.544;2022-11-20T11:02:50;2.36;70.45
71206;SHT31;58935;54.498;18.544;2022-11-20T11:08:12;2.35;70.15
71206;SHT31;58935;54.498;18.544;2022-11-20T11:10:51;2.29;70.10
71206;SHT31;58935;54.498;18.544;2022-11-20T11:13:22;2.23;70.21
71206;SHT31;58935;54.498;18.544;2022-11-20T11:15:50;2.17;70.46
71206;SHT31;58935;54.498;18.544;2022-11-20T11:20:50;2.17;70.41
71206;SHT31;58935;54.498;18.544;2022-11-20T11:25:56;2.20;70.34
71206;SHT31;58935;54.498;18.544;2022-11-20T11:28:25;2.21;70.31
71206;SHT31;58935;54.498;18.544;2022-11-20T11:30:53;2.18;70.16
71206;SHT31;58935;54.498;18.544;2022-11-20T11:33:20;2.17;70.29
71206;SHT31;58935;54.498;18.544;2022-11-20T11:35:50;2.18;70.70
71206;SHT31;58935;54.498;18.544;2022-11-20T11:38:21;2.22;70.68
71206;SHT31;58935;54.498;18.544;2022-11-20T11:40:53;2.24;70.62
71206;SHT31;58935;54.498;18.544;2022-11-20T11:43:24;2.26;70.31
71206;SHT31;58935;54.498;18.544;2022-11-20T11:45:56;2.24;70.30
71206;SHT31;58935;54.498;18.544;2022-11-20T11:48:22;2.16;70.35
71206;SHT31;58935;54.498;18.544;2022-11-20T11:50:48;2.09;70.47
71206;SHT31;58935;54.498;18.544;2022-11-20T11:53:17;2.05;70.86
71206;SHT31;58935;54.498;18.544;2022-11-20T12:01:17;2.11;70.70
71206;SHT31;58935;54.498;18.544;2022-11-20T12:03:55;2.12;70.73
71206;SHT31;58935;54.498;18.544;2022-11-20T12:06:27;2.10;70.73
71206;SHT31;58935;54.498;18.544;2022-11-20T12:08:58;2.06;70.57
71206;SHT31;58935;54.498;18.544;2022-11-20T12:11:31;2.04;70.91
71206;SHT31;58935;54.498;18.544;2022-11-20T12:14:20;2.10;71.21
71206;SHT31;58935;54.498;18.544;2022-11-20T12:16:52;2.22;71.03
71206;SHT31;58935;54.498;18.544;2022-11-20T12:19:19;2.27;70.68
71206;SHT31;58935;54.498;18.544;2022-11-20T12:24:31;2.17;70.50
71206;SHT31;58935;54.498;18.544;2022-11-20T12:30:14;2.12;70.65
71206;SHT31;58935;54.498;18.544;2022-11-20T12:32:35;2.13;70.77
71206;SHT31;58935;54.498;18.544;2022-11-20T12:43:01;2.15;70.60
71206;SHT31;58935;54.498;18.544;2022-11-20T12:45:48;2.20;70.50
71206;SHT31;58935;54.498;18.544;2022-11-20T12:48:49;2.20;70.29
71206;SHT31;58935;54.498;18.544;2022-11-20T12:59:30;2.16;70.54
71206;SHT31;58935;54.498;18.544;2022-11-20T13:02:13;2.17;70.47
71206;SHT31;58935;54.498;18.544;2022-11-20T13:04:52;2.12;70.43
71206;SHT31;58935;54.498;18.544;2022-11-20T13:07:22;2.09;70.89
71206;SHT31;58935;54.498;18.544;2022-11-20T13:09:51;2.08;70.87
71206;SHT31;58935;54.498;18.544;2022-11-20T13:14:58;2.05;71.16
71206;SHT31;58935;54.498;18.544;2022-11-20T13:17:47;2.07;71.11
71206;SHT31;58935;54.498;18.544;2022-11-20T13:20:21;2.01;71.27
71206;SHT31;58935;54.498;18.544;2022-11-20T13:22:48;1.95;71.51
71206;SHT31;58935;54.498;18.544;2022-11-20T13:27:47;1.97;71.92
71206;SHT31;58935;54.498;18.544;2022-11-20T13:30:16;1.99;71.77
71206;SHT31;58935;54.498;18.544;2022-11-20T13:35:27;1.89;72.02
71206;SHT31;58935;54.498;18.544;2022-11-20T13:40:35;1.88;72.22
71206;SHT31;58935;54.498;18.544;2022-11-20T13:45:35;1.76;72.59
71206;SHT31;58935;54.498;18.544;2022-11-20T13:48:18;1.70;72.64
71206;SHT31;58935;54.498;18.544;2022-11-20T13:50:48;1.65;72.94
71206;SHT31;58935;54.498;18.544;2022-11-20T13:53:27;1.67;73.12
71206;SHT31;58935;54.498;18.544;2022-11-20T13:56:13;1.68;73.04
71206;SHT31;58935;54.498;18.544;2022-11-20T13:58:49;1.68;73.18
71206;SHT31;58935;54.498;18.544;2022-11-20T14:01:28;1.71;73.36
71206;SHT31;58935;54.498;18.544;2022-11-20T14:03:56;1.71;73.27
71206;SHT31;58935;54.498;18.544;2022-11-20T14:06:27;1.72;73.47
71206;SHT31;58935;54.498;18.544;2022-11-20T14:08:57;1.74;73.58
71206;SHT31;58935;54.498;18.544;2022-11-20T14:11:27;1.74;73.58
71206;SHT31;58935;54.498;18.544;2022-11-20T14:16:26;1.65;73.73
71206;SHT31;58935;54.498;18.544;2022-11-20T14:18:55;1.59;73.93
71206;SHT31;58935;54.498;18.544;2022-11-20T14:21:23;1.54;74.10
71206;SHT31;58935;54.498;18.544;2022-11-20T14:24:02;1.52;74.24
71206;SHT31;58935;54.498;18.544;2022-11-20T14:26:33;1.50;74.38
71206;SHT31;58935;54.498;18.544;2022-11-20T14:29:01;1.50;74.49
71206;SHT31;58935;54.498;18.544;2022-11-20T14:31:27;1.52;74.56
71206;SHT31;58935;54.498;18.544;2022-11-20T14:33:55;1.53;74.61
71206;SHT31;58935;54.498;18.544;2022-11-20T14:36:22;1.51;74.73
71206;SHT31;58935;54.498;18.544;2022-11-20T14:38:49;1.49;74.85
71206;SHT31;58935;54.498;18.544;2022-11-20T14:41:18;1.45;75.00
71206;SHT31;58935;54.498;18.544;2022-11-20T14:43:46;1.41;75.20
71206;SHT31;58935;54.498;18.544;2022-11-20T14:46:17;1.37;75.35
71206;SHT31;58935;54.498;18.544;2022-11-20T14:48:48;1.33;75.46
71206;SHT31;58935;54.498;18.544;2022-11-20T14:53:47;1.28;75.87
71206;SHT31;58935;54.498;18.544;2022-11-20T14:56:12;1.28;75.95
71206;SHT31;58935;54.498;18.544;2022-11-20T14:58:54;1.26;75.94
71206;SHT31;58935;54.498;18.544;2022-11-20T15:01:25;1.22;76.18
71206;SHT31;58935;54.498;18.544;2022-11-20T15:06:26;1.22;76.60
71206;SHT31;58935;54.498;18.544;2022-11-20T15:08:52;1.25;76.81
71206;SHT31;58935;54.498;18.544;2022-11-20T15:11:18;1.26;76.84
71206;SHT31;58935;54.498;18.544;2022-11-20T15:13:47;1.29;77.02
71206;SHT31;58935;54.498;18.544;2022-11-20T15:16:15;1.32;76.96
71206;SHT31;58935;54.498;18.544;2022-11-20T15:18:44;1.29;77.00
71206;SHT31;58935;54.498;18.544;2022-11-20T15:21:10;1.27;77.19
71206;SHT31;58935;54.498;18.544;2022-11-20T15:23:38;1.29;77.37
71206;SHT31;58935;54.498;18.544;2022-11-20T15:26:04;1.29;77.28
71206;SHT31;58935;54.498;18.544;2022-11-20T15:28:32;1.26;77.22
71206;SHT31;58935;54.498;18.544;2022-11-20T15:30:59;1.23;77.26
71206;SHT31;58935;54.498;18.544;2022-11-20T15:33:27;1.21;77.30
71206;SHT31;58935;54.498;18.544;2022-11-20T15:35:52;1.20;77.44
71206;SHT31;58935;54.498;18.544;2022-11-20T15:38:18;1.19;77.47
71206;SHT31;58935;54.498;18.544;2022-11-20T15:40:43;1.18;77.58
71206;SHT31;58935;54.498;18.544;2022-11-20T15:43:08;1.15;77.74
71206;SHT31;58935;54.498;18.544;2022-11-20T15:48:04;1.13;77.77
71206;SHT31;58935;54.498;18.544;2022-11-20T15:50:40;1.09;77.90
71206;SHT31;58935;54.498;18.544;2022-11-20T15:53:27;1.05;77.96
71206;SHT31;58935;54.498;18.544;2022-11-20T15:55:52;1.02;77.98
71206;SHT31;58935;54.498;18.544;2022-11-20T15:58:17;1.03;78.10
71206;SHT31;58935;54.498;18.544;2022-11-20T16:00:43;1.05;78.02
71206;SHT31;58935;54.498;18.544;2022-11-20T16:03:11;1.08;78.09
71206;SHT31;58935;54.498;18.544;2022-11-20T16:05:38;1.10;77.95
71206;SHT31;58935;54.498;18.544;2022-11-20T16:08:03;1.14;78.05
71206;SHT31;58935;54.498;18.544;2022-11-20T16:10:29;1.17;77.98
71206;SHT31;58935;54.498;18.544;2022-11-20T16:12:57;1.19;77.84
71206;SHT31;58935;54.498;18.544;2022-11-20T16:15:25;1.21;77.84
71206;SHT31;58935;54.498;18.544;2022-11-20T16:17:56;1.20;77.79
71206;SHT31;58935;54.498;18.544;2022-11-20T16:20:22;1.16;77.74
71206;SHT31;58935;54.498;18.544;2022-11-20T16:22:47;1.12;77.87
71206;SHT31;58935;54.498;18.544;2022-11-20T16:25:12;1.08;77.98
71206;SHT31;58935;54.498;18.544;2022-11-20T16:27:38;1.08;78.05
71206;SHT31;58935;54.498;18.544;2022-11-20T16:30:06;1.11;78.08
71206;SHT31;58935;54.498;18.544;2022-11-20T16:32:32;1.15;78.06
71206;SHT31;58935;54.498;18.544;2022-11-20T16:34:58;1.14;78.00
71206;SHT31;58935;54.498;18.544;2022-11-20T16:37:26;1.10;77.97
71206;SHT31;58935;54.498;18.544;2022-11-20T16:39:51;1.06;78.04
71206;SHT31;58935;54.498;18.544;2022-11-20T16:42:16;1.03;78.10
71206;SHT31;58935;54.498;18.544;2022-11-20T16:44:43;1.02;78.21
71206;SHT31;58935;54.498;18.544;2022-11-20T16:47:13;1.00;78.19
71206;SHT31;58935;54.498;18.544;2022-11-20T16:49:41;0.96;78.06
71206;SHT31;58935;54.498;18.544;2022-11-20T16:52:10;0.91;78.13
71206;SHT31;58935;54.498;18.544;2022-11-20T16:54:36;0.90;78.28
71206;SHT31;58935;54.498;18.544;2022-11-20T16:57:01;0.91;78.29